Timeline UpdatesTrip UpdatesNews PostsPvt PostsTravel TipsAdmin PostsConv PostsFollowed PostsChat RequestsBlog PostsPNR Posts

Disclaimer
Search
 
 
Thu Oct 2, 2014 20:01:23 ISTHomeTrainsΣChainsAtlasPNRForumGalleryNewsFAQTripsMembersLoginFeedback
No Recent News for this Train
Other Trains in the News **new
Latest...
Temporary Stop at Vindhyachal (BDL) for 2 minutes from 25/9/14-6/10/14 #1223333.
Wed Sep 24, 2014 (11:33PM)
⇐ Return Journey: Train# 15648

15647/Mumbai LTT-Guwahati Weekly Express

Time-Table HAS CHANGED.
Sep 24 (11:33PM)
Change Departure Station:
Change Arrival Station:
Post a Train Travel TipPost a Train Travel Tip **new
Post a Comment/Question/Picture/VideoPost a Comment/Question/Picture/Video
Pantry/Catering
✓ Pantry Car Avbl
✓ Catering Avbl
RSA - Rake Sharing
Rake/Coach Composition
2A-1; 3A-3; SL-12; GEN-3; PC-1; SLR-2 :: 22 COACH
Loco
ET-GHY =>ET WDMx
News    PNR    Forum    Time-Table    Availability    Fare Chart    Map    Arr/Dep History    Trips    Gallery    ΣChains    X/O    Timeline    
Travel Time: 49h 50m    49 halts    Distance: 2575 km    Avg Speed: 51 km/hr
Type: Mail/Express
Zone: NFR/Northeast Frontier
Departs @ 11:10 (Avg 20m late)
Platform# 1
     F 
Devlali/DVL 
Arrives @ 13:00 +2 nights (Avg 52m late)
Platform# ???
S      
Guwahati/GHY 

49 halts. 402 intermediate Stations between Devlali and Guwahati

Show ALL intermediate Stations  Show Old Time-Table

#CodeStation NameX/OArrivesAvgDepartsAvgHaltPFDay#KmSpeedElevZoneAddress
1LTTMumbai Lokmanya Tilak Terminus (5)  -08:05+051-163.4737mCRMumbai - 400089, Maharashtra
2KYNKalyan Junction (8)X  08:35+1908:40+195m41-126.74710mCRKalyan 421301, Maharashtra
3IGPIgatpuri (4)X10:35 10:25+410:40 10:30+115m21-44.971589mCRIgatpuri 422403, Maharashtra
4DVLDevlali (3)»X  11:08+2011:10+202m110.023561mCRDist. Nashik 422401, Maharashtra
5NKNasik Road (3)  11:28 11:25+1211:30+132 5m115.797563mCRNashik 422101, Maharashtra
6MMRManmad Junction (6)  12:25 12:15+1812:30 12:20+175m1178.585580mCRManmad 423104, Maharashtra
7BSLBhusaval Junction (8)X  14:45 14:30+1814:55 14:40+2110m--1262.776208mCRBhusaval 425201, Maharashtra
8BAUBurhanpur (2)  15:38 15:23+4015:40 15:25+402m21317.234269mCRBurhanpur, Madhya Pradesh
9KNWKhandwa Junction (5)  17:35 17:25+317:40 17:30+55m--1386.195310mCRKhandwa, Madhya Pradesh
10HDHarda (3)  18:38+2018:40+202m--1493.757289mWCRHarda, Madhya Pradesh
11ETItarsi Junction (7)X20:00+220:10+1010m--1569.572329mWCRItarsi 461111, Madhya Pradesh
12PPIPipariya (3)  21:06+4221:08+422m--1636.781338mWCRPiparia, Madhya Pradesh
13JBPJabalpur Junction (4)X  23:20+3823:30+4010m41814.578416mWCRJabalpur, Madhya Pradesh
14KTEKatni Junction (6)X  00:40+4300:45+445m--2905.374387mWCRKatni, Madhya Pradesh
15STASatna Junction (3)XO  02:10 02:05+4102:20 02:15+3810m--21003.747322mWCRSatna, Madhya Pradesh
16COIChheoki Junction (3)  06:05 05:50+706:10 05:55+115m--21173.78096mNCRDist.-Allahabad, Uttar Pradesh
17MZPMirzapur (3)X  07:10 06:55+1707:15 07:00+195m--21254.13388mNCRMirzapur, Uttar Pradesh
18MGSMughal Sarai Junction (8)  08:55+309:10+515m--21317.37583mECRMughalsarai 232101, Uttar Pradesh
19DLNDildarnagar Junction (2)  09:56+1109:58+112m--21375.08072mECRDildarnagar, Uttar Pradesh
20BXRBuxar (3)  10:25+1310:27+132m--21411.28967mECRBuxar, Bihar
21DUREDumraon (3)  10:38+1910:40+212m--21427.58970mECRDumraon, Bihar
22ARAAra Junction (3)  11:19 11:15+2311:21 11:17+232m--21479.77963mECRarrah( 06182-233411), Bihar
23DNRDanapur (5)X  11:47+1:2411:57+1:3010m--21519.21158mECRKhagaul, Bihar
24PNBEPatna Junction (10)X  12:50+5913:00+1:0310m821528.63557mECRPatna 800001, Bihar
25PNCPatna Saheb (3)  13:17+1:3313:19+1:332m--21538.54359mECRPatna 800008, Bihar
26FUTFatwa (6)  13:36+1:3413:38+1:342m--21550.76353mECRPatna, Bihar
27KOOKhusropur (2)  13:46+1:3413:48+1:342m--21559.26452mECRPatna, Bihar
28BKPBakhtiyarpur Junction (5)  14:02+1:4114:04+1:482m--21574.06051mECRPatna, Bihar
29BARHBarh (3)  14:22+1:5514:24+1:572m--21592.14349mECRBarh, Bihar
30MKAMokama Junction (4)X  15:00+1:4815:05+1:455m--21617.85648mECRPatna, Bihar
31HTZHathidah Junction (2)  15:14+1:4715:16+1:472m121626.26350mECRMusahari, Bihar
32BRYABarhiya (3)  15:25+1:4915:27+1:492m--21635.63547mECRBarahiya, Bihar
33LKRLuckeesarai Junction (2)  15:53+1:4715:55+1:472m--21650.7852mECRLakhisarai, Bihar
34KIULKiul Junction (5)X  16:05+1:2716:12+1:277m--21652.15153mECRDist. Lakhisarai, Bihar
35AHAAbhaipur (3)  16:39+1:3816:41+1:392m--21675.14252mERAbhaipur, Bihar
36JMPJamalpur Junction (4)X  17:12+1:3517:27+1:3015m--21696.96159mERJamalpur 06344-243101, Bihar
37BUPBariarpur (3)  17:38+1:3317:40+1:332m--21708.05442mERMunger, Bihar
38SGGSultanGanj (3)  18:00+1:3218:02+1:322m--21726.04542mERSultanganj, Bihar
39BGPBhagalpur Junction (6)  18:35+1:2018:50+1:2115m--21750.96949mERBhagalpur, Bihar
40CLGKahalgaon (2)X  19:16+1:4219:18+1:422m121781.03944mERBhagalpur, Bihar
41SBGSahibganj Junction (3)  20:25+5620:35+1:0310m121824.94538mERSahibganj, Jharkhand
42BHWBarharwa Junction (3)  21:48+5321:50+562m221879.34036mERBarharwa, Jharkhand
43NFKNew Farakka Junction (3)  22:17+5522:19+592m221897.33532mERDist - Murshidabad, West Bengal
44MLDTMalda Town (5)X  23:20+1:1523:35+1:1215m--21932.47430mERDist - Malda, West Bengal
45KNEKishanGanj (3)  01:35+1:1101:40+1:115m--32080.65052mNFRKishanganj, Bihar
46NJPNew Jalpaiguri Junction (8)X  03:25+1:1003:40+1:0215m--32167.952114mNFRCity-Siliguri . Dist-Jalpaiguri, West Bengal
47DQGDhupguri (2)  05:00 04:55+1:0805:05 05:00+1:085m--32233.26075mNFRDist - Jalpaiguri, West Bengal
48NCBNew Cooch Behar Junction (5)  06:05 06:00+1:0106:10 06:05+1:035m--32293.45647mNFRDist : Cooch Behar-736101, West Bengal
49NOQNew Alipurduar (2)  06:35 06:25+1:0206:40 06:30+1:015m--32312.04948mNFRDist - Alipurduar - 736121, West Bengal
50NBQNew Bongaigaon Junction (4)  08:40+4608:50+4610m--32418.74658mNFR783381., Assam
51BPRDBarpeta Road  09:52 09:47+4709:57 09:52+475m--32462.84749mNFRHowli, Assam
52RNYRangiya Junction (5)  11:15+5211:25+4810m--32527.73858mNFRRangia, Assam
53KYQKamakhya Junction (4)  12:30+5412:35+545m--32568.31755mNFRDist - KAMRUP, Assam
54GHYGuwahati (7)•  13:00+52---32575.3-60mNFRGuwahati, Assam
Scroll to Top
Scroll to Bottom